createdAt,value
2018-08-30T00:00:39.165Z,36.52
2018-08-30T00:01:39.191Z,36.52
2018-08-30T00:02:39.214Z,36.52
2018-08-30T00:03:39.240Z,36.61
2018-08-30T00:04:39.265Z,36.52
2018-08-30T00:05:39.290Z,36.61
2018-08-30T00:06:39.316Z,36.61
2018-08-30T00:07:39.342Z,36.52
2018-08-30T00:08:39.368Z,36.61
2018-08-30T00:09:39.392Z,36.52
2018-08-30T00:10:39.418Z,36.61
2018-08-30T00:11:39.444Z,36.52
2018-08-30T00:12:39.470Z,36.42
2018-08-30T00:13:39.494Z,36.71
2018-08-30T00:14:39.520Z,36.61
2018-08-30T00:15:39.546Z,36.61
2018-08-30T00:16:39.591Z,36.61
2018-08-30T00:17:39.596Z,36.52
2018-08-30T00:18:39.622Z,36.52
2018-08-30T00:19:39.651Z,36.71
2018-08-30T00:20:39.714Z,36.53
2018-08-30T00:21:39.698Z,36.61
2018-08-30T00:22:39.728Z,36.61
2018-08-30T00:23:39.752Z,36.61
2018-08-30T00:24:39.776Z,36.72
2018-08-30T00:25:39.800Z,36.61
2018-08-30T00:26:39.826Z,36.52
2018-08-30T00:27:39.855Z,36.71
2018-08-30T00:28:39.881Z,36.61
2018-08-30T00:29:39.903Z,36.61
2018-08-30T00:30:39.928Z,36.61
2018-08-30T00:31:39.982Z,36.61
2018-08-30T00:32:39.979Z,36.61
2018-08-30T00:33:40.004Z,36.61
2018-08-30T00:34:40.030Z,36.71
2018-08-30T00:35:40.056Z,36.52
2018-08-30T00:36:40.083Z,36.61
2018-08-30T00:37:40.108Z,36.71
2018-08-30T00:38:40.132Z,36.52
2018-08-30T00:39:40.163Z,36.52
2018-08-30T00:40:40.184Z,36.71
2018-08-30T00:41:40.245Z,36.52
2018-08-30T00:42:40.234Z,36.71
2018-08-30T00:43:40.261Z,36.71
2018-08-30T00:44:40.286Z,36.61
2018-08-30T00:45:40.320Z,36.52
2018-08-30T00:46:40.350Z,36.61
2018-08-30T00:47:40.362Z,36.42
2018-08-30T00:48:40.389Z,36.52
2018-08-30T00:49:40.472Z,36.61
2018-08-30T00:50:40.438Z,36.52
2018-08-30T00:51:40.464Z,36.71
2018-08-30T00:52:40.489Z,36.42
2018-08-30T00:53:40.516Z,36.61
2018-08-30T00:54:40.540Z,36.61
2018-08-30T00:55:40.585Z,36.42
2018-08-30T00:56:40.591Z,36.61
2018-08-30T00:57:40.616Z,36.61
2018-08-30T00:58:40.643Z,36.42
2018-08-30T00:59:40.668Z,36.80
2018-08-30T01:00:40.693Z,36.52
2018-08-30T01:01:40.751Z,36.71
2018-08-30T01:02:40.777Z,36.61
2018-08-30T01:03:40.770Z,36.52
2018-08-30T01:04:40.796Z,36.71
2018-08-30T01:05:40.820Z,36.52
2018-08-30T01:06:40.847Z,36.61
2018-08-30T01:07:40.872Z,36.61
2018-08-30T01:08:40.901Z,36.61
2018-08-30T01:09:40.922Z,36.71
2018-08-30T01:10:40.951Z,36.61
2018-08-30T01:11:40.973Z,36.52
2018-08-30T01:12:40.999Z,36.61
2018-08-30T01:13:41.024Z,36.42
2018-08-30T01:14:41.050Z,36.42
2018-08-30T01:15:41.076Z,36.71
2018-08-30T01:16:41.101Z,36.71
2018-08-30T01:17:41.127Z,36.52
2018-08-30T01:18:41.151Z,36.61
2018-08-30T01:19:41.178Z,36.61
2018-08-30T01:20:41.205Z,36.61
2018-08-30T01:21:41.228Z,36.61
2018-08-30T01:22:41.254Z,36.61
2018-08-30T01:23:41.280Z,36.52
2018-08-30T01:24:41.305Z,36.52
2018-08-30T01:25:41.330Z,36.71
2018-08-30T01:26:41.357Z,36.61
2018-08-30T01:27:41.386Z,36.52
2018-08-30T01:28:41.408Z,36.52
2018-08-30T01:29:41.432Z,36.61
2018-08-30T01:30:41.458Z,36.61
2018-08-30T01:31:41.484Z,36.61
2018-08-30T01:32:41.509Z,36.52
2018-08-30T01:33:41.535Z,36.61
2018-08-30T01:34:41.559Z,36.52
2018-08-30T01:35:41.589Z,36.61
2018-08-30T01:36:41.611Z,36.52
2018-08-30T01:37:41.635Z,36.52
2018-08-30T01:38:41.662Z,36.52
2018-08-30T01:39:41.687Z,36.42
2018-08-30T01:40:41.713Z,36.71
2018-08-30T01:41:41.737Z,36.52
2018-08-30T01:42:41.794Z,36.52
2018-08-30T01:43:41.792Z,36.52
2018-08-30T01:44:41.824Z,36.61
2018-08-30T01:45:41.848Z,36.61
2018-08-30T01:46:41.865Z,36.61
2018-08-30T01:47:41.891Z,36.61
2018-08-30T01:48:41.916Z,36.34
2018-08-30T01:49:41.941Z,36.61
2018-08-30T01:50:41.968Z,36.32
2018-08-30T01:51:41.993Z,36.42
2018-08-30T01:52:42.019Z,36.32
2018-08-30T01:53:42.044Z,36.42
2018-08-30T01:54:42.089Z,36.13
2018-08-30T01:55:42.096Z,36.42
2018-08-30T01:56:42.121Z,36.61
2018-08-30T01:57:42.145Z,36.42
2018-08-30T01:58:42.172Z,36.61
2018-08-30T01:59:42.222Z,36.61
2018-08-30T02:00:42.245Z,36.52
2018-08-30T02:01:42.248Z,36.61
2018-08-30T02:02:42.274Z,36.52
2018-08-30T02:03:42.299Z,36.61
2018-08-30T02:04:42.325Z,36.61
2018-08-30T02:05:42.350Z,36.61
2018-08-30T02:06:42.412Z,36.71
2018-08-30T02:07:42.402Z,36.71
2018-08-30T02:08:42.426Z,36.22
2018-08-30T02:09:42.452Z,36.61
2018-08-30T02:10:42.480Z,36.61
2018-08-30T02:11:42.518Z,36.61
2018-08-30T02:12:42.529Z,36.61
2018-08-30T02:13:42.555Z,36.61
2018-08-30T02:14:42.583Z,36.42
2018-08-30T02:15:42.605Z,36.42
2018-08-30T02:16:42.663Z,36.42
2018-08-30T02:17:42.656Z,36.61
2018-08-30T02:18:42.684Z,36.32
2018-08-30T02:19:42.708Z,36.53
2018-08-30T02:20:42.732Z,36.22
2018-08-30T02:21:42.795Z,36.53
2018-08-30T02:22:42.783Z,36.52
2018-08-30T02:23:42.810Z,36.52
2018-08-30T02:24:42.835Z,36.42
2018-08-30T02:25:42.859Z,36.32
2018-08-30T02:26:42.912Z,36.53
2018-08-30T02:27:42.946Z,36.44
2018-08-30T02:28:42.937Z,36.34
2018-08-30T02:29:42.962Z,36.44
2018-08-30T02:30:42.988Z,36.52
2018-08-30T02:31:43.013Z,36.22
2018-08-30T02:32:43.039Z,36.32
2018-08-30T02:33:43.070Z,36.52
2018-08-30T02:34:43.089Z,36.42
2018-08-30T02:35:43.144Z,36.52
2018-08-30T02:36:43.141Z,36.42
2018-08-30T02:37:43.182Z,36.52
2018-08-30T02:38:43.191Z,36.44
2018-08-30T02:39:43.216Z,36.53
2018-08-30T02:40:43.242Z,36.44
2018-08-30T02:41:43.268Z,36.32
2018-08-30T02:42:43.292Z,36.44
2018-08-30T02:43:43.319Z,36.24
2018-08-30T02:44:43.345Z,36.53
2018-08-30T02:45:43.369Z,36.15
2018-08-30T02:46:43.395Z,36.32
2018-08-30T02:47:43.425Z,36.34
2018-08-30T02:48:43.450Z,36.32
2018-08-30T02:49:43.473Z,36.24
2018-08-30T02:50:43.497Z,36.32
2018-08-30T02:51:43.523Z,36.42
2018-08-30T02:52:43.548Z,36.34
2018-08-30T02:53:43.573Z,36.15
2018-08-30T02:54:43.625Z,36.34
2018-08-30T02:55:43.625Z,36.44
2018-08-30T02:56:43.650Z,36.53
2018-08-30T02:57:43.675Z,35.95
2018-08-30T02:58:43.700Z,36.24
2018-08-30T02:59:43.731Z,36.05
2018-08-30T03:00:43.755Z,36.15
2018-08-30T03:01:43.777Z,36.13
2018-08-30T03:02:43.802Z,36.05
2018-08-30T03:03:43.828Z,36.05
2018-08-30T03:04:43.854Z,36.15
2018-08-30T03:05:43.879Z,36.44
2018-08-30T03:06:43.904Z,36.44
2018-08-30T03:07:43.930Z,36.24
2018-08-30T03:08:43.956Z,36.24
2018-08-30T03:09:43.982Z,36.44
2018-08-30T03:10:44.007Z,36.34
2018-08-30T03:11:44.033Z,35.95
2018-08-30T03:12:44.058Z,36.34
2018-08-30T03:13:44.084Z,36.42
2018-08-30T03:14:44.108Z,36.53
2018-08-30T03:15:44.133Z,36.44
2018-08-30T03:16:44.159Z,36.44
2018-08-30T03:17:44.184Z,36.42
2018-08-30T03:18:44.210Z,36.53
2018-08-30T03:19:44.236Z,36.44
2018-08-30T03:20:44.260Z,36.24
2018-08-30T03:21:44.286Z,35.95
2018-08-30T03:22:44.319Z,36.24
2018-08-30T03:23:44.337Z,36.53
2018-08-30T03:24:44.364Z,36.53
2018-08-30T03:25:44.388Z,36.44
2018-08-30T03:26:44.413Z,36.44
2018-08-30T03:27:44.454Z,36.24
2018-08-30T03:28:44.465Z,36.24
2018-08-30T03:29:44.489Z,36.15
2018-08-30T03:30:44.600Z,36.34
2018-08-30T03:31:44.542Z,36.24
2018-08-30T03:32:44.601Z,35.95
2018-08-30T03:33:44.592Z,35.95
2018-08-30T03:34:44.618Z,36.53
2018-08-30T03:35:44.643Z,36.34
2018-08-30T03:36:44.669Z,36.24
2018-08-30T03:37:44.728Z,36.44
2018-08-30T03:38:44.719Z,36.44
2018-08-30T03:39:44.745Z,36.05
2018-08-30T03:40:44.770Z,36.44
2018-08-30T03:41:44.800Z,36.34
2018-08-30T03:42:44.821Z,36.44
2018-08-30T03:43:44.857Z,36.05
2018-08-30T03:44:44.873Z,36.15
2018-08-30T03:45:44.902Z,36.34
2018-08-30T03:46:44.949Z,36.34
2018-08-30T03:47:44.949Z,36.24
2018-08-30T03:48:44.975Z,36.24
2018-08-30T03:49:45.000Z,36.34
2018-08-30T03:50:45.025Z,36.05
2018-08-30T03:51:45.051Z,36.44
2018-08-30T03:52:45.078Z,36.44
2018-08-30T03:53:45.103Z,36.44
2018-08-30T03:54:45.128Z,36.44
2018-08-30T03:55:45.154Z,36.24
2018-08-30T03:56:45.179Z,36.44
2018-08-30T03:57:45.204Z,36.24
2018-08-30T03:58:45.229Z,36.44
2018-08-30T03:59:45.256Z,36.44
2018-08-30T04:00:45.291Z,36.44
2018-08-30T04:01:45.306Z,36.34
2018-08-30T04:02:45.357Z,36.44
2018-08-30T04:03:45.383Z,36.34
2018-08-30T04:04:45.383Z,36.44
2018-08-30T04:05:45.407Z,36.34
2018-08-30T04:06:45.436Z,36.34
2018-08-30T04:07:45.458Z,36.34
2018-08-30T04:08:45.484Z,36.24
2018-08-30T04:09:45.579Z,36.44
2018-08-30T04:10:45.535Z,36.53
2018-08-30T04:11:45.586Z,36.53
2018-08-30T04:12:45.587Z,36.53
2018-08-30T04:13:45.625Z,36.53
2018-08-30T04:14:45.637Z,36.44
2018-08-30T04:15:45.664Z,36.15
2018-08-30T04:16:45.689Z,36.44
2018-08-30T04:17:45.713Z,36.53
2018-08-30T04:18:45.738Z,36.44
2018-08-30T04:19:45.764Z,36.63
2018-08-30T04:20:45.790Z,36.53
2018-08-30T04:21:45.815Z,36.44
2018-08-30T04:22:45.841Z,36.53
2018-08-30T04:23:45.867Z,36.53
2018-08-30T04:24:45.897Z,36.63
2018-08-30T04:25:45.918Z,36.34
2018-08-30T04:26:45.942Z,36.53
2018-08-30T04:27:45.968Z,36.44
2018-08-30T04:28:45.994Z,36.53
2018-08-30T04:29:46.020Z,36.44
2018-08-30T04:30:46.048Z,36.63
2018-08-30T04:31:46.071Z,36.44
2018-08-30T04:32:46.097Z,36.44
2018-08-30T04:33:46.122Z,36.44
2018-08-30T04:34:46.147Z,36.53
2018-08-30T04:35:46.173Z,36.53
2018-08-30T04:36:46.199Z,36.53
2018-08-30T04:37:46.230Z,36.34
2018-08-30T04:38:46.250Z,36.34
2018-08-30T04:39:46.276Z,36.24
2018-08-30T04:40:46.302Z,36.53
2018-08-30T04:41:46.333Z,36.24
2018-08-30T04:42:46.362Z,36.63
2018-08-30T04:43:46.381Z,36.24
2018-08-30T04:44:46.402Z,36.53
2018-08-30T04:45:46.428Z,36.63
2018-08-30T04:46:46.456Z,36.53
2018-08-30T04:47:46.480Z,36.53
2018-08-30T04:48:46.505Z,36.53
2018-08-30T04:49:46.530Z,36.44
2018-08-30T04:50:46.591Z,36.44
2018-08-30T04:51:46.585Z,36.63
2018-08-30T04:52:46.606Z,36.63
2018-08-30T04:53:46.631Z,36.72
2018-08-30T04:54:46.656Z,36.72
2018-08-30T04:55:46.688Z,36.72
2018-08-30T04:56:46.725Z,36.63
2018-08-30T04:57:46.733Z,36.63
2018-08-30T04:58:46.760Z,36.63
2018-08-30T04:59:46.785Z,36.63
2018-08-30T05:00:46.810Z,36.53
2018-08-30T05:01:46.884Z,36.92
2018-08-30T05:02:46.861Z,36.94
2018-08-30T05:03:46.887Z,36.74
2018-08-30T05:04:46.913Z,36.84
2018-08-30T05:05:46.938Z,36.94
2018-08-30T05:06:46.966Z,36.84
2018-08-30T05:07:46.989Z,36.94
2018-08-30T05:08:47.018Z,36.94
2018-08-30T05:09:47.040Z,36.84
2018-08-30T05:10:47.104Z,36.84
2018-08-30T05:11:47.091Z,36.74
2018-08-30T05:12:47.119Z,36.55
2018-08-30T05:13:47.144Z,36.84
2018-08-30T05:14:47.169Z,36.94
2018-08-30T05:15:47.194Z,36.46
2018-08-30T05:16:47.221Z,36.65
2018-08-30T05:17:47.244Z,36.74
2018-08-30T05:18:47.297Z,36.74
2018-08-30T05:19:47.297Z,36.84
2018-08-30T05:20:47.322Z,36.65
2018-08-30T05:21:47.346Z,36.84
2018-08-30T05:22:47.378Z,36.94
2018-08-30T05:23:47.432Z,36.65
2018-08-30T05:24:47.426Z,36.65
2018-08-30T05:25:47.451Z,36.65
2018-08-30T05:26:47.509Z,36.65
2018-08-30T05:27:47.502Z,36.55
2018-08-30T05:28:47.531Z,36.74
2018-08-30T05:29:47.565Z,36.65
2018-08-30T05:30:47.578Z,36.55
2018-08-30T05:31:47.603Z,36.74
2018-08-30T05:32:47.629Z,36.74
2018-08-30T05:33:47.654Z,36.55
2018-08-30T05:34:47.680Z,36.55
2018-08-30T05:35:47.779Z,36.55
2018-08-30T05:36:47.734Z,36.74
2018-08-30T05:37:47.756Z,36.84
2018-08-30T05:38:47.782Z,36.74
2018-08-30T05:39:47.810Z,36.84
2018-08-30T05:40:47.855Z,36.74
2018-08-30T05:41:47.859Z,36.74
2018-08-30T05:42:47.885Z,36.55
2018-08-30T05:43:47.912Z,36.65
2018-08-30T05:44:47.970Z,36.55
2018-08-30T05:45:47.961Z,36.74
2018-08-30T05:46:48.032Z,36.74
2018-08-30T05:47:48.013Z,36.46
2018-08-30T05:48:48.043Z,36.74
2018-08-30T05:49:48.084Z,36.94
2018-08-30T05:50:48.090Z,36.84
2018-08-30T05:51:48.116Z,36.94
2018-08-30T05:52:48.143Z,36.65
2018-08-30T05:53:48.170Z,36.94
2018-08-30T05:54:48.194Z,36.94
2018-08-30T05:55:48.229Z,36.94
2018-08-30T05:56:48.305Z,36.94
2018-08-30T05:57:48.275Z,36.84
2018-08-30T05:58:48.297Z,36.94
2018-08-30T05:59:48.321Z,36.84
2018-08-30T06:00:48.346Z,36.84
2018-08-30T06:01:48.372Z,36.84
2018-08-30T06:02:48.397Z,36.94
2018-08-30T06:03:48.423Z,36.84
2018-08-30T06:04:48.450Z,36.94
2018-08-30T06:05:48.474Z,37.05
2018-08-30T06:06:54.840Z,36.94
2018-08-30T06:08:41.013Z,36.84
2018-08-30T06:09:40.436Z,36.65
2018-08-30T06:11:32.357Z,36.96
2018-08-30T06:12:32.294Z,36.94
2018-08-30T06:14:24.222Z,36.84
2018-08-30T06:15:24.196Z,36.84
2018-08-30T06:17:16.122Z,37.04
2018-08-30T06:18:16.092Z,36.74
2018-08-30T06:20:07.972Z,37.04
2018-08-30T06:21:07.987Z,36.96
2018-08-30T06:22:59.876Z,37.23
2018-08-30T06:23:59.886Z,37.13
2018-08-30T06:25:51.794Z,37.15
2018-08-30T06:26:51.839Z,36.96
2018-08-30T06:28:43.663Z,37.24
2018-08-30T06:29:43.683Z,37.23
2018-08-30T06:31:35.676Z,37.23
2018-08-30T06:32:35.576Z,37.32
2018-08-30T06:34:28.066Z,37.24
2018-08-30T06:35:27.515Z,37.23
2018-08-30T06:37:19.399Z,37.13
2018-08-30T06:38:19.397Z,37.23
2018-08-30T06:40:11.283Z,37.13
2018-08-30T06:41:11.295Z,37.42
2018-08-30T06:43:03.779Z,37.23
2018-08-30T06:44:03.234Z,37.44
2018-08-30T06:45:55.313Z,37.34
2018-08-30T06:46:55.315Z,37.42
2018-08-30T06:48:47.831Z,37.44
2018-08-30T06:49:47.218Z,37.13
2018-08-30T06:51:39.152Z,37.44
2018-08-30T06:52:39.111Z,37.62
2018-08-30T06:54:31.009Z,37.32
2018-08-30T06:55:31.008Z,37.62
2018-08-30T06:57:23.040Z,37.71
2018-08-30T06:58:22.920Z,37.54
2018-08-30T07:00:15.378Z,37.63
2018-08-30T07:01:14.805Z,37.63
2018-08-30T07:03:07.552Z,37.44
2018-08-30T07:04:06.760Z,37.44
2018-08-30T07:05:58.592Z,37.34
2018-08-30T07:06:58.599Z,37.44
2018-08-30T07:08:50.486Z,37.34
2018-08-30T07:09:50.497Z,37.34
2018-08-30T07:11:42.375Z,37.73
2018-08-30T07:12:42.399Z,37.73
2018-08-30T07:14:34.306Z,37.63
2018-08-30T07:15:34.292Z,37.34
2018-08-30T07:17:26.197Z,37.34
2018-08-30T07:18:26.188Z,37.44
2018-08-30T07:20:18.178Z,37.63
2018-08-30T07:21:18.110Z,37.73
2018-08-30T07:23:10.013Z,37.63
2018-08-30T07:24:10.048Z,37.82
2018-08-30T07:26:01.918Z,37.73
2018-08-30T07:27:01.930Z,37.73
2018-08-30T07:28:53.830Z,37.63
2018-08-30T07:29:53.829Z,37.54
2018-08-30T07:31:45.727Z,37.73
2018-08-30T07:32:45.733Z,37.54
2018-08-30T07:34:37.735Z,37.73
2018-08-30T07:35:37.706Z,37.63
2018-08-30T07:37:29.585Z,37.63
2018-08-30T07:38:29.582Z,37.82
2018-08-30T07:40:22.073Z,37.63
2018-08-30T07:41:21.484Z,37.63
2018-08-30T07:43:13.391Z,37.63
2018-08-30T07:44:13.409Z,37.63
2018-08-30T07:46:05.853Z,37.92
2018-08-30T07:47:05.320Z,37.81
2018-08-30T07:48:57.774Z,37.82
2018-08-30T07:49:57.193Z,37.73
2018-08-30T07:51:49.092Z,37.82
2018-08-30T07:52:49.093Z,37.92
2018-08-30T07:54:41.918Z,37.73
2018-08-30T07:55:41.012Z,37.82
2018-08-30T07:57:32.992Z,38.02
2018-08-30T07:58:32.888Z,38.02
2018-08-30T08:00:24.789Z,37.82
2018-08-30T08:01:24.782Z,37.92
2018-08-30T08:03:16.720Z,38.21
2018-08-30T08:04:16.697Z,38.12
2018-08-30T08:06:08.668Z,37.82
2018-08-30T08:07:15.098Z,38.02
2018-08-30T08:09:01.067Z,38.02
2018-08-30T08:10:00.480Z,38.02
2018-08-30T08:11:00.529Z,38.02
2018-08-30T08:12:00.606Z,38.02
2018-08-30T08:13:00.559Z,38.02
2018-08-30T08:14:00.587Z,38.12
2018-08-30T08:15:00.622Z,38.02
2018-08-30T08:16:00.637Z,37.92
2018-08-30T08:17:00.662Z,38.12
2018-08-30T08:18:00.691Z,38.21
2018-08-30T08:19:00.754Z,38.02
2018-08-30T08:20:00.746Z,37.92
2018-08-30T08:21:00.765Z,37.82
2018-08-30T08:22:00.790Z,38.02
2018-08-30T08:23:00.815Z,38.21
2018-08-30T08:24:00.841Z,38.02
2018-08-30T08:25:00.871Z,38.02
2018-08-30T08:26:00.893Z,38.12
2018-08-30T08:27:00.919Z,38.21
2018-08-30T08:28:00.952Z,38.41
2018-08-30T08:29:00.971Z,38.21
2018-08-30T08:30:00.997Z,38.21
2018-08-30T08:31:01.035Z,38.02
2018-08-30T08:32:01.049Z,38.41
2018-08-30T08:33:01.074Z,38.31
2018-08-30T08:34:01.106Z,38.12
2018-08-30T08:35:01.125Z,38.31
2018-08-30T08:36:01.152Z,38.31
2018-08-30T08:37:01.178Z,38.41
2018-08-30T08:38:01.203Z,38.41
2018-08-30T08:39:01.229Z,38.41
2018-08-30T08:40:01.256Z,38.21
2018-08-30T08:41:01.281Z,38.60
2018-08-30T08:42:01.307Z,38.41
2018-08-30T08:43:01.332Z,38.50
2018-08-30T08:44:01.359Z,38.31
2018-08-30T08:45:01.387Z,38.31
2018-08-30T08:46:01.409Z,38.31
2018-08-30T08:47:01.435Z,38.41
2018-08-30T08:48:01.461Z,38.50
2018-08-30T08:49:01.492Z,38.21
2018-08-30T08:50:01.516Z,38.60
2018-08-30T08:51:01.586Z,38.41
2018-08-30T08:52:01.570Z,38.70
2018-08-30T08:53:01.591Z,38.41
2018-08-30T08:54:01.619Z,38.70
2018-08-30T08:55:01.641Z,38.41
2018-08-30T08:56:01.701Z,38.60
2018-08-30T08:57:01.695Z,38.50
2018-08-30T08:58:01.718Z,38.50
2018-08-30T08:59:01.793Z,38.41
2018-08-30T09:00:01.803Z,38.50
2018-08-30T09:01:01.797Z,38.50
2018-08-30T09:02:01.833Z,38.79
2018-08-30T09:03:01.848Z,38.60
2018-08-30T09:04:01.875Z,38.31
2018-08-30T09:05:01.903Z,38.60
2018-08-30T09:06:01.925Z,38.41
2018-08-30T09:07:01.995Z,38.60
2018-08-30T09:08:01.978Z,39.09
2018-08-30T09:09:02.025Z,38.50
2018-08-30T09:10:02.029Z,38.79
2018-08-30T09:11:02.054Z,38.81
2018-08-30T09:12:02.081Z,38.41
2018-08-30T09:13:02.121Z,38.81
2018-08-30T09:14:02.135Z,38.89
2018-08-30T09:15:02.164Z,38.43
2018-08-30T09:16:02.184Z,38.81
2018-08-30T09:17:02.210Z,38.81
2018-08-30T09:18:02.240Z,38.91
2018-08-30T09:19:02.262Z,38.91
2018-08-30T09:20:02.288Z,38.71
2018-08-30T09:21:02.314Z,38.91
2018-08-30T09:22:02.340Z,38.71
2018-08-30T09:23:02.418Z,38.62
2018-08-30T09:24:02.390Z,38.62
2018-08-30T09:25:02.418Z,38.71
2018-08-30T09:26:02.442Z,38.71
2018-08-30T09:27:02.524Z,38.71
2018-08-30T09:28:02.495Z,38.91
2018-08-30T09:29:02.521Z,38.91
2018-08-30T09:30:02.578Z,38.81
2018-08-30T09:31:02.680Z,38.53
2018-08-30T09:32:02.611Z,38.62
2018-08-30T09:33:02.624Z,38.91
2018-08-30T09:34:02.652Z,38.53
2018-08-30T09:35:02.680Z,38.91
2018-08-30T09:36:02.703Z,38.81
2018-08-30T09:37:02.728Z,38.53
2018-08-30T09:38:02.753Z,38.81
2018-08-30T09:39:02.779Z,39.01
2018-08-30T09:40:02.805Z,39.11
2018-08-30T09:41:02.856Z,38.33
2018-08-30T09:42:02.871Z,38.71
2018-08-30T09:43:02.884Z,38.81
2018-08-30T09:44:02.915Z,38.71
2018-08-30T09:45:02.952Z,38.81
2018-08-30T09:46:02.961Z,38.71
2018-08-30T09:47:02.986Z,38.43
2018-08-30T09:48:03.056Z,38.33
2018-08-30T09:49:03.045Z,38.71
2018-08-30T09:50:03.086Z,38.71
2018-08-30T09:51:03.122Z,39.11
2018-08-30T09:52:03.118Z,38.81
2018-08-30T09:53:03.161Z,38.81
2018-08-30T09:54:03.183Z,38.81
2018-08-30T09:55:03.195Z,38.43
2018-08-30T09:56:03.222Z,39.20
2018-08-30T09:57:03.453Z,38.81
2018-08-30T09:58:03.272Z,38.62
2018-08-30T09:59:03.300Z,38.53
2018-08-30T10:00:03.326Z,39.11
2018-08-30T10:01:03.350Z,38.71
2018-08-30T10:02:03.399Z,38.71
2018-08-30T10:03:03.408Z,38.81
2018-08-30T10:04:03.428Z,38.91
2018-08-30T10:05:03.458Z,38.91
2018-08-30T10:06:03.479Z,38.91
2018-08-30T10:07:03.505Z,38.91
2018-08-30T10:08:03.534Z,38.71
2018-08-30T10:09:03.558Z,38.71
2018-08-30T10:10:03.611Z,38.62
2018-08-30T10:11:03.609Z,38.60
2018-08-30T10:12:03.637Z,39.20
2018-08-30T10:13:03.690Z,38.91
2018-08-30T10:14:03.692Z,39.01
2018-08-30T10:15:03.712Z,39.01
2018-08-30T10:16:03.891Z,38.91
2018-08-30T10:17:03.764Z,38.91
2018-08-30T10:18:03.792Z,38.71
2018-08-30T10:19:03.816Z,38.91
2018-08-30T10:20:03.844Z,39.01
2018-08-30T10:21:03.870Z,38.81
2018-08-30T10:22:03.895Z,38.81
2018-08-30T10:23:03.923Z,38.62
2018-08-30T10:24:03.946Z,38.81
2018-08-30T10:25:03.983Z,38.91
2018-08-30T10:26:03.998Z,38.91
2018-08-30T10:27:04.045Z,38.91
2018-08-30T10:28:04.049Z,38.91
2018-08-30T10:29:04.075Z,38.91
2018-08-30T10:30:04.104Z,38.91
2018-08-30T10:31:04.126Z,38.91
2018-08-30T10:32:04.153Z,38.91
2018-08-30T10:33:04.179Z,38.81
2018-08-30T10:34:04.204Z,38.91
2018-08-30T10:35:04.255Z,38.91
2018-08-30T10:36:04.294Z,38.91
2018-08-30T10:37:04.353Z,39.01
2018-08-30T10:38:04.310Z,38.81
2018-08-30T10:39:04.334Z,38.71
2018-08-30T10:40:04.361Z,39.01
2018-08-30T10:41:04.387Z,38.91
2018-08-30T10:42:04.413Z,39.01
2018-08-30T10:43:04.468Z,38.71
2018-08-30T10:44:04.464Z,39.29
2018-08-30T10:45:04.490Z,39.11
2018-08-30T10:46:04.519Z,39.01
2018-08-30T10:47:04.543Z,38.71
2018-08-30T10:48:04.569Z,38.91
2018-08-30T10:49:04.598Z,39.01
2018-08-30T10:50:04.618Z,38.91
2018-08-30T10:51:04.646Z,38.91
2018-08-30T10:52:04.686Z,38.91
2018-08-30T10:53:04.697Z,38.91
2018-08-30T10:54:04.726Z,38.79
2018-08-30T10:55:04.748Z,38.91
2018-08-30T10:56:04.774Z,38.70
2018-08-30T10:57:04.801Z,38.99
2018-08-30T10:58:04.831Z,38.60
2018-08-30T10:59:04.887Z,38.62
2018-08-30T11:00:04.880Z,38.70
2018-08-30T11:01:04.905Z,39.01
2018-08-30T11:02:04.966Z,39.01
2018-08-30T11:03:04.960Z,38.70
2018-08-30T11:04:04.983Z,38.71
2018-08-30T11:05:05.027Z,39.20
2018-08-30T11:06:05.034Z,39.18
2018-08-30T11:07:05.070Z,39.28
2018-08-30T11:08:05.136Z,39.11
2018-08-30T11:09:05.115Z,38.99
2018-08-30T11:10:06.129Z,39.01
2018-08-30T11:11:05.164Z,39.11
2018-08-30T11:12:05.189Z,39.47
2018-08-30T11:13:05.355Z,39.29
2018-08-30T11:14:05.241Z,39.29
2018-08-30T11:15:05.267Z,39.20
2018-08-30T11:16:05.293Z,39.29
2018-08-30T11:17:05.319Z,39.29
2018-08-30T11:18:05.351Z,39.39
2018-08-30T11:19:05.370Z,39.29
2018-08-30T11:20:05.397Z,39.11
2018-08-30T11:21:05.423Z,39.49
2018-08-30T11:22:05.477Z,39.39
2018-08-30T11:23:05.474Z,39.29
2018-08-30T11:24:05.502Z,39.39
2018-08-30T11:25:05.527Z,39.39
2018-08-30T11:26:05.551Z,39.29
2018-08-30T11:27:05.576Z,39.39
2018-08-30T11:28:05.603Z,39.39
2018-08-30T11:29:05.630Z,39.29
2018-08-30T11:30:05.659Z,39.20
2018-08-30T11:31:05.681Z,39.39
2018-08-30T11:32:05.709Z,39.29
2018-08-30T11:33:05.734Z,39.20
2018-08-30T11:34:05.759Z,39.29
2018-08-30T11:35:05.788Z,39.11
2018-08-30T11:36:05.812Z,39.29
2018-08-30T11:37:05.844Z,39.29
2018-08-30T11:38:05.866Z,39.29
2018-08-30T11:39:05.889Z,39.11
2018-08-30T11:40:05.915Z,39.01
2018-08-30T11:41:05.949Z,39.11
2018-08-30T11:42:05.967Z,39.01
2018-08-30T11:43:05.993Z,39.49
2018-08-30T11:44:06.019Z,39.49
2018-08-30T11:45:06.045Z,39.59
2018-08-30T11:46:06.070Z,39.11
2018-08-30T11:47:06.133Z,39.49
2018-08-30T11:48:06.122Z,39.11
2018-08-30T11:49:06.169Z,39.18
2018-08-30T11:50:06.173Z,39.29
2018-08-30T11:51:06.253Z,39.37
2018-08-30T11:52:06.289Z,39.39
2018-08-30T11:53:06.252Z,39.20
2018-08-30T11:54:06.318Z,39.18
2018-08-30T11:55:06.304Z,39.69
2018-08-30T11:56:06.393Z,39.57
2018-08-30T11:57:06.362Z,39.57
2018-08-30T11:58:06.381Z,39.57
2018-08-30T11:59:06.407Z,39.76
2018-08-30T12:00:06.434Z,39.76
2018-08-30T12:01:06.459Z,39.67
2018-08-30T12:02:06.485Z,39.76
2018-08-30T12:03:06.518Z,39.67
2018-08-30T12:04:06.541Z,39.18
2018-08-30T12:05:06.563Z,39.18
2018-08-30T12:06:06.588Z,39.69
2018-08-30T12:07:06.616Z,39.69
2018-08-30T12:08:06.798Z,39.28
2018-08-30T12:09:06.667Z,39.57
2018-08-30T12:10:06.742Z,39.28
2018-08-30T12:11:06.964Z,39.69
2018-08-30T12:12:06.747Z,39.76
2018-08-30T12:13:06.772Z,39.78
2018-08-30T12:14:06.796Z,39.67
2018-08-30T12:15:06.823Z,39.59
2018-08-30T12:16:06.854Z,39.67
2018-08-30T12:17:06.882Z,39.76
2018-08-30T12:18:06.900Z,39.57
2018-08-30T12:19:06.926Z,39.67
2018-08-30T12:20:06.953Z,39.67
2018-08-30T12:21:06.979Z,39.67
2018-08-30T12:22:07.005Z,39.76
2018-08-30T12:23:07.030Z,39.78
2018-08-30T12:24:07.057Z,39.59
2018-08-30T12:25:07.084Z,39.67
2018-08-30T12:26:07.107Z,39.67
2018-08-30T12:27:07.133Z,39.69
2018-08-30T12:28:07.160Z,39.67
2018-08-30T12:29:07.262Z,39.67
2018-08-30T12:30:07.259Z,39.67
2018-08-30T12:31:07.241Z,39.57
2018-08-30T12:32:07.272Z,39.57
2018-08-30T12:33:07.296Z,39.57
2018-08-30T12:34:07.412Z,39.37
2018-08-30T12:35:07.464Z,39.18
2018-08-30T12:36:07.367Z,39.29
2018-08-30T12:37:07.393Z,39.86
2018-08-30T12:38:07.451Z,39.86
2018-08-30T12:39:07.475Z,39.86
2018-08-30T12:40:07.622Z,39.76
2018-08-30T12:41:07.522Z,39.67
2018-08-30T12:42:07.523Z,39.76
2018-08-30T12:43:07.577Z,40.05
2018-08-30T12:44:07.628Z,39.57
2018-08-30T12:45:07.600Z,40.05
2018-08-30T12:46:07.756Z,39.95
2018-08-30T12:47:07.676Z,40.05
2018-08-30T12:48:07.688Z,39.95
2018-08-30T12:49:07.704Z,40.05
2018-08-30T12:50:07.877Z,40.05
2018-08-30T12:51:07.896Z,40.05
2018-08-30T12:52:07.883Z,40.05
2018-08-30T12:53:07.933Z,39.95
2018-08-30T12:54:07.966Z,39.86
2018-08-30T12:55:07.963Z,39.86
2018-08-30T12:56:08.045Z,39.86
2018-08-30T12:57:08.032Z,39.95
2018-08-30T12:58:08.116Z,39.95
2018-08-30T12:59:08.048Z,39.86
2018-08-30T13:00:08.158Z,39.86
2018-08-30T13:01:08.120Z,39.86
2018-08-30T13:02:08.155Z,39.86
2018-08-30T13:03:08.115Z,39.76
2018-08-30T13:04:08.345Z,39.86
2018-08-30T13:05:08.292Z,39.86
2018-08-30T13:06:08.579Z,39.95
2018-08-30T13:07:08.394Z,39.86
2018-08-30T13:08:08.370Z,39.86
2018-08-30T13:09:08.661Z,39.86
2018-08-30T13:10:08.450Z,39.86
2018-08-30T13:11:08.690Z,39.86
2018-08-30T13:12:08.778Z,39.86
2018-08-30T13:13:08.586Z,39.95
2018-08-30T13:14:08.535Z,39.86
2018-08-30T13:15:08.830Z,39.86
2018-08-30T13:16:08.726Z,40.05
2018-08-30T13:17:08.685Z,39.95
2018-08-30T13:18:08.708Z,40.05
2018-08-30T13:19:08.774Z,39.67
2018-08-30T13:20:08.792Z,39.76
2018-08-30T13:21:08.747Z,39.76
2018-08-30T13:22:08.928Z,39.76
2018-08-30T13:23:08.879Z,39.76
2018-08-30T13:24:08.909Z,39.86
2018-08-30T13:25:09.064Z,39.57
2018-08-30T13:26:08.992Z,39.76
2018-08-30T13:27:09.028Z,39.57
2018-08-30T13:28:09.099Z,40.34
2018-08-30T13:29:09.074Z,40.25
2018-08-30T13:30:09.059Z,40.34